createdAt,value
2022-08-27T00:00:01.885Z,2.22
2022-08-27T00:02:29.025Z,1.75
2022-08-27T00:04:56.164Z,2.00
2022-08-27T00:07:23.270Z,2.00
2022-08-27T00:09:50.315Z,1.92
2022-08-27T00:12:17.378Z,1.90
2022-08-27T00:14:44.510Z,1.95
2022-08-27T00:17:11.814Z,2.00
2022-08-27T00:19:39.757Z,1.90
2022-08-27T00:22:07.577Z,1.90
2022-08-27T00:24:34.978Z,2.10
2022-08-27T00:27:05.553Z,2.15
2022-08-27T00:29:34.089Z,1.98
2022-08-27T00:32:01.275Z,1.80
2022-08-27T00:34:28.495Z,2.08
2022-08-27T00:36:55.559Z,1.85
2022-08-27T00:39:22.639Z,1.70
2022-08-27T00:41:50.157Z,2.05
2022-08-27T00:44:17.667Z,2.10
2022-08-27T00:46:52.531Z,1.95
2022-08-27T00:49:25.765Z,1.85
2022-08-27T00:51:56.443Z,2.10
2022-08-27T00:54:23.665Z,1.90
2022-08-27T00:56:51.805Z,1.93
2022-08-27T00:59:20.214Z,1.98
2022-08-27T01:02:06.571Z,1.90
2022-08-27T01:04:34.717Z,2.00
2022-08-27T01:07:02.165Z,2.05
2022-08-27T01:09:29.875Z,1.63
2022-08-27T01:11:58.082Z,2.00
2022-08-27T01:14:25.271Z,2.10
2022-08-27T01:16:54.255Z,2.05
2022-08-27T01:19:29.257Z,2.00
2022-08-27T01:21:59.683Z,1.77
2022-08-27T01:24:31.489Z,2.28
2022-08-27T01:26:59.534Z,2.05
2022-08-27T01:29:27.294Z,2.00
2022-08-27T01:31:56.605Z,1.80
2022-08-27T01:34:24.051Z,1.90
2022-08-27T01:36:51.097Z,1.77
2022-08-27T01:39:24.388Z,1.77
2022-08-27T01:41:52.566Z,1.90
2022-08-27T01:44:21.005Z,1.65
2022-08-27T01:46:48.207Z,1.90
2022-08-27T01:49:15.303Z,1.83
2022-08-27T01:51:42.411Z,1.60
2022-08-27T01:54:10.654Z,1.75
2022-08-27T01:56:37.718Z,1.90
2022-08-27T01:59:04.773Z,2.03
2022-08-27T02:01:31.932Z,1.80
2022-08-27T02:03:59.092Z,1.80
2022-08-27T02:06:26.185Z,2.00
2022-08-27T02:08:53.265Z,2.00
2022-08-27T02:11:20.322Z,1.93
2022-08-27T02:13:47.372Z,1.80
2022-08-27T02:16:14.595Z,2.00
2022-08-27T02:18:42.667Z,2.10
2022-08-27T02:21:10.374Z,1.85
2022-08-27T02:23:37.486Z,1.93
2022-08-27T02:26:04.597Z,1.90
2022-08-27T02:28:31.653Z,2.17
2022-08-27T02:30:58.796Z,1.75
2022-08-27T02:33:26.513Z,2.20
2022-08-27T02:35:53.586Z,1.70
2022-08-27T02:38:20.790Z,2.22
2022-08-27T02:40:47.847Z,1.80
2022-08-27T02:43:15.781Z,2.08
2022-08-27T02:45:43.271Z,2.00
2022-08-27T02:48:10.558Z,2.00
2022-08-27T02:50:37.953Z,1.90
2022-08-27T02:53:05.847Z,1.73
2022-08-27T02:55:33.870Z,1.92
2022-08-27T02:58:01.218Z,1.75
2022-08-27T03:00:31.430Z,1.80
2022-08-27T03:02:58.818Z,1.77
2022-08-27T03:05:26.497Z,1.98
2022-08-27T03:07:53.573Z,1.70
2022-08-27T03:10:21.083Z,2.10
2022-08-27T03:12:48.162Z,1.87
2022-08-27T03:15:16.439Z,1.90
2022-08-27T03:18:02.421Z,1.85
2022-08-27T03:20:29.722Z,1.83
2022-08-27T03:22:56.791Z,1.90
2022-08-27T03:25:24.021Z,2.20
2022-08-27T03:27:51.259Z,2.10
2022-08-27T03:30:20.374Z,1.90
2022-08-27T03:32:47.739Z,2.15
2022-08-27T03:35:15.033Z,2.30
2022-08-27T03:37:42.161Z,1.80
2022-08-27T03:40:09.808Z,2.00
2022-08-27T03:42:37.514Z,2.00
2022-08-27T03:45:04.892Z,1.83
2022-08-27T03:47:32.243Z,1.73
2022-08-27T03:50:02.515Z,1.80
2022-08-27T03:52:29.752Z,1.60
2022-08-27T03:54:56.969Z,1.95
2022-08-27T03:57:24.187Z,2.17
2022-08-27T03:59:53.028Z,1.70
2022-08-27T04:02:21.636Z,2.00
2022-08-27T04:04:48.797Z,1.73
2022-08-27T04:07:16.446Z,1.88
2022-08-27T04:09:43.557Z,1.80
2022-08-27T04:12:11.635Z,1.85
2022-08-27T04:14:38.910Z,1.73
2022-08-27T04:17:06.409Z,1.77
2022-08-27T04:19:34.391Z,2.00
2022-08-27T04:22:03.098Z,1.80
2022-08-27T04:24:31.446Z,2.00
2022-08-27T04:26:59.409Z,1.80
2022-08-27T04:29:26.795Z,2.00
2022-08-27T04:31:54.045Z,2.10
2022-08-27T04:34:21.230Z,1.92
2022-08-27T04:36:50.148Z,2.70
2022-08-27T04:39:17.674Z,2.10
2022-08-27T04:41:44.746Z,1.73
2022-08-27T04:44:12.534Z,1.90
2022-08-27T04:46:40.595Z,1.90
2022-08-27T04:49:12.251Z,2.25
2022-08-27T04:51:41.018Z,1.87
2022-08-27T04:54:09.665Z,1.98
2022-08-27T04:56:37.939Z,2.17
2022-08-27T04:59:05.783Z,1.77
2022-08-27T05:01:33.026Z,1.92
2022-08-27T05:04:00.694Z,2.10
2022-08-27T05:06:27.828Z,2.30
2022-08-27T05:08:55.590Z,1.90
2022-08-27T05:11:23.376Z,1.73
2022-08-27T05:13:50.727Z,1.88
2022-08-27T05:16:19.555Z,1.80
2022-08-27T05:18:48.353Z,1.95
2022-08-27T05:21:18.666Z,1.83
2022-08-27T05:23:45.907Z,1.98
2022-08-27T05:26:12.984Z,2.08
2022-08-27T05:28:40.077Z,1.67
2022-08-27T05:31:08.508Z,2.05
2022-08-27T05:33:36.131Z,2.20
2022-08-27T05:36:03.341Z,2.10
2022-08-27T05:38:30.731Z,1.90
2022-08-27T05:41:05.813Z,1.80
2022-08-27T05:43:32.945Z,2.10
2022-08-27T05:46:00.049Z,1.90
2022-08-27T05:48:27.158Z,1.80
2022-08-27T05:50:54.279Z,1.73
2022-08-27T05:53:21.334Z,2.00
2022-08-27T05:55:48.849Z,2.20
2022-08-27T05:58:34.696Z,2.30
2022-08-27T06:01:09.411Z,2.20
2022-08-27T06:03:38.170Z,2.10
2022-08-27T06:06:06.734Z,2.03
2022-08-27T06:08:33.864Z,1.95
2022-08-27T06:11:01.934Z,1.98
2022-08-27T06:13:29.383Z,2.00
2022-08-27T06:16:10.433Z,2.30
2022-08-27T06:18:38.707Z,1.93
2022-08-27T06:21:06.510Z,2.10
2022-08-27T06:23:33.994Z,1.98
2022-08-27T06:26:01.871Z,2.10
2022-08-27T06:28:29.841Z,2.00
2022-08-27T06:31:03.860Z,2.13
2022-08-27T06:33:31.071Z,2.42
2022-08-27T06:36:01.641Z,1.90
2022-08-27T06:38:29.012Z,2.20
2022-08-27T06:40:56.874Z,2.10
2022-08-27T06:43:25.183Z,2.30
2022-08-27T06:45:52.634Z,2.10
2022-08-27T06:48:20.498Z,2.25
2022-08-27T06:50:47.781Z,2.47
2022-08-27T06:53:15.287Z,2.60
2022-08-27T06:55:46.736Z,2.37
2022-08-27T06:58:14.467Z,2.20
2022-08-27T07:00:46.013Z,2.40
2022-08-27T07:03:15.530Z,2.40
2022-08-27T07:05:42.608Z,2.17
2022-08-27T07:08:11.212Z,2.00
2022-08-27T07:10:38.502Z,2.28
2022-08-27T07:13:05.826Z,2.45
2022-08-27T07:15:33.092Z,2.45
2022-08-27T07:18:02.269Z,2.15
2022-08-27T07:20:32.960Z,2.07
2022-08-27T07:23:00.013Z,2.38
2022-08-27T07:25:27.415Z,2.20
2022-08-27T07:27:54.518Z,2.00
2022-08-27T07:30:21.652Z,2.30
2022-08-27T07:32:48.818Z,2.30
2022-08-27T07:35:15.928Z,2.33
2022-08-27T07:37:43.258Z,2.50
2022-08-27T07:40:14.795Z,2.60
2022-08-27T07:43:01.479Z,2.30
2022-08-27T07:45:28.950Z,2.40
2022-08-27T07:47:56.007Z,2.38
2022-08-27T07:50:23.550Z,2.53
2022-08-27T07:52:51.138Z,2.40
2022-08-27T07:55:18.502Z,2.00
2022-08-27T07:57:47.874Z,2.00
2022-08-27T08:00:15.703Z,2.33
2022-08-27T08:02:44.900Z,2.13
2022-08-27T08:05:12.589Z,1.95
2022-08-27T08:07:39.872Z,2.03
2022-08-27T08:10:08.621Z,2.00
2022-08-27T08:12:36.665Z,2.00
2022-08-27T08:15:04.910Z,1.90
2022-08-27T08:17:33.243Z,2.30
2022-08-27T08:20:19.918Z,2.10
2022-08-27T08:22:48.794Z,2.00
2022-08-27T08:25:16.276Z,2.10
2022-08-27T08:27:43.538Z,2.22
2022-08-27T08:30:12.015Z,2.20
2022-08-27T08:32:39.135Z,2.08
2022-08-27T08:35:07.926Z,2.13
2022-08-27T08:37:35.603Z,2.00
2022-08-27T08:40:03.193Z,1.98
2022-08-27T08:42:50.628Z,2.10
2022-08-27T08:45:21.171Z,2.20
2022-08-27T08:47:50.967Z,1.80
2022-08-27T08:50:20.581Z,2.10
2022-08-27T08:52:54.753Z,2.20
2022-08-27T08:55:24.810Z,2.10
2022-08-27T08:58:06.126Z,2.10
2022-08-27T09:00:33.226Z,2.10
2022-08-27T09:03:00.417Z,2.45
2022-08-27T09:05:28.009Z,2.10
2022-08-27T09:08:21.354Z,1.98
2022-08-27T09:10:50.622Z,2.10
2022-08-27T09:13:23.475Z,2.20
2022-08-27T09:15:52.378Z,2.08
2022-08-27T09:18:19.445Z,1.98
2022-08-27T09:20:49.938Z,2.13
2022-08-27T09:23:16.980Z,2.00
2022-08-27T09:25:44.697Z,2.30
2022-08-27T09:28:32.684Z,2.35
2022-08-27T09:31:06.942Z,2.40
2022-08-27T09:33:40.820Z,2.10
2022-08-27T09:36:19.355Z,2.00
2022-08-27T09:38:58.154Z,2.10
2022-08-27T09:41:28.420Z,2.10
2022-08-27T09:44:02.897Z,2.15
2022-08-27T09:46:29.993Z,1.92
2022-08-27T09:48:57.407Z,1.92
2022-08-27T09:51:28.254Z,2.10
2022-08-27T09:54:02.227Z,1.80
2022-08-27T09:56:33.275Z,1.90
2022-08-27T09:59:11.095Z,1.75
2022-08-27T10:02:00.878Z,1.70
2022-08-27T10:04:38.020Z,1.70
2022-08-27T10:07:17.874Z,1.45
2022-08-27T10:09:48.668Z,1.80
2022-08-27T10:12:18.830Z,1.80
2022-08-27T10:14:49.256Z,1.85
2022-08-27T10:17:27.502Z,1.73
2022-08-27T10:20:03.775Z,1.80
2022-08-27T10:22:41.339Z,2.10
2022-08-27T10:25:08.557Z,1.80
2022-08-27T10:27:54.563Z,1.58
2022-08-27T10:30:25.829Z,1.60
2022-08-27T10:32:59.037Z,1.50
2022-08-27T10:35:36.638Z,1.50
2022-08-27T10:38:22.157Z,1.70
2022-08-27T10:40:49.250Z,1.50
2022-08-27T10:43:35.310Z,1.50
2022-08-27T10:46:22.778Z,1.60
2022-08-27T10:48:58.769Z,1.60
2022-08-27T10:51:31.258Z,1.65
2022-08-27T10:54:05.770Z,1.88
2022-08-27T10:56:38.846Z,1.40
2022-08-27T10:59:14.481Z,1.70
2022-08-27T11:01:50.284Z,2.03
2022-08-27T11:04:26.275Z,1.42
2022-08-27T11:06:57.769Z,1.48
2022-08-27T11:09:37.651Z,1.40
2022-08-27T11:12:14.346Z,1.40
2022-08-27T11:14:47.710Z,1.63
2022-08-27T11:17:16.827Z,1.50
2022-08-27T11:19:50.927Z,1.77
2022-08-27T11:22:29.502Z,1.67
2022-08-27T11:25:14.992Z,1.70
2022-08-27T11:27:42.995Z,1.83
2022-08-27T11:30:12.189Z,1.60
2022-08-27T11:32:47.042Z,1.55
2022-08-27T11:35:18.968Z,1.27
2022-08-27T11:38:02.341Z,1.60
2022-08-27T11:40:38.065Z,1.77
2022-08-27T11:43:06.783Z,1.50
2022-08-27T11:45:52.940Z,1.95
2022-08-27T11:48:22.999Z,1.50
2022-08-27T11:51:02.016Z,1.50
2022-08-27T11:53:52.679Z,1.70
2022-08-27T11:56:35.946Z,1.50
2022-08-27T11:59:21.821Z,1.58
2022-08-27T12:01:49.726Z,1.60
2022-08-27T12:04:37.081Z,1.60
2022-08-27T12:07:06.978Z,1.65
2022-08-27T12:09:48.018Z,1.67
2022-08-27T12:12:17.608Z,1.50
2022-08-27T12:14:59.253Z,1.50
2022-08-27T12:17:26.323Z,1.40
2022-08-27T12:20:12.255Z,1.50
2022-08-27T12:22:59.274Z,1.33
2022-08-27T12:25:26.517Z,1.98
2022-08-27T12:27:57.871Z,1.73
2022-08-27T12:30:35.750Z,1.70
2022-08-27T12:33:26.107Z,1.52
2022-08-27T12:35:55.009Z,1.30
2022-08-27T12:38:37.358Z,1.85
2022-08-27T12:41:08.960Z,1.70
2022-08-27T12:43:43.405Z,1.63
2022-08-27T12:46:18.898Z,1.55
2022-08-27T12:48:52.434Z,1.48
2022-08-27T12:51:25.830Z,1.55
2022-08-27T12:53:58.319Z,1.50
2022-08-27T12:56:32.942Z,1.45
2022-08-27T12:59:29.206Z,1.80
2022-08-27T13:01:56.361Z,1.40
2022-08-27T13:04:27.439Z,1.50
2022-08-27T13:06:54.513Z,1.30
2022-08-27T13:09:29.658Z,1.75
2022-08-27T13:11:57.542Z,1.63
2022-08-27T13:14:25.643Z,1.33
2022-08-27T13:16:57.722Z,1.65
2022-08-27T13:19:27.551Z,1.37
2022-08-27T13:21:54.894Z,1.60
2022-08-27T13:24:28.233Z,1.70
2022-08-27T13:26:55.356Z,1.95
2022-08-27T13:29:22.519Z,2.28
2022-08-27T13:31:49.835Z,1.37
2022-08-27T13:34:19.678Z,1.67
2022-08-27T13:37:02.282Z,1.48
2022-08-27T13:39:29.431Z,1.52
2022-08-27T13:41:59.257Z,1.95
2022-08-27T13:44:33.959Z,1.80
2022-08-27T13:47:03.226Z,1.60
2022-08-27T13:49:31.751Z,1.70
2022-08-27T13:52:01.108Z,1.70
2022-08-27T13:54:28.525Z,1.60
2022-08-27T13:57:03.758Z,1.60
2022-08-27T13:59:32.201Z,1.88
2022-08-27T14:02:02.690Z,1.67
2022-08-27T14:04:41.134Z,1.45
2022-08-27T14:07:13.530Z,1.50
2022-08-27T14:10:02.763Z,1.50
2022-08-27T14:12:35.104Z,1.75
2022-08-27T14:15:25.515Z,1.50
2022-08-27T14:17:52.590Z,1.67
2022-08-27T14:20:21.084Z,1.40
2022-08-27T14:22:48.622Z,1.33
2022-08-27T14:25:16.305Z,1.80
2022-08-27T14:27:52.858Z,1.40
2022-08-27T14:30:25.268Z,1.52
2022-08-27T14:32:58.395Z,1.50
2022-08-27T14:35:25.770Z,1.50
2022-08-27T14:37:53.036Z,1.75
2022-08-27T14:40:20.526Z,1.40
2022-08-27T14:42:47.704Z,1.48
2022-08-27T14:45:15.070Z,1.98
2022-08-27T14:47:43.607Z,1.40
2022-08-27T14:50:12.250Z,1.67
2022-08-27T14:52:40.641Z,1.90
2022-08-27T14:55:10.899Z,1.40
2022-08-27T14:57:38.234Z,1.40
2022-08-27T15:00:06.250Z,1.47
2022-08-27T15:02:33.355Z,1.30
2022-08-27T15:05:00.476Z,1.50
2022-08-27T15:07:28.027Z,1.10
2022-08-27T15:09:56.427Z,1.48
2022-08-27T15:12:26.400Z,1.47
2022-08-27T15:14:53.994Z,1.38
2022-08-27T15:17:35.217Z,1.52
2022-08-27T15:20:04.549Z,1.67
2022-08-27T15:22:33.772Z,1.50
2022-08-27T15:25:03.099Z,1.53
2022-08-27T15:27:32.216Z,1.50
2022-08-27T15:30:10.002Z,1.58
2022-08-27T15:32:39.497Z,2.10
2022-08-27T15:35:09.555Z,1.33
2022-08-27T15:37:36.628Z,1.40
2022-08-27T15:40:03.981Z,1.33
2022-08-27T15:42:31.238Z,1.38
2022-08-27T15:44:58.337Z,1.20
2022-08-27T15:47:26.205Z,1.20
2022-08-27T15:49:53.328Z,1.67
2022-08-27T15:52:21.497Z,1.52
2022-08-27T15:54:49.977Z,1.48
2022-08-27T15:57:17.681Z,1.15
2022-08-27T15:59:44.793Z,1.60
2022-08-27T16:02:15.652Z,1.30
2022-08-27T16:04:43.127Z,1.50
2022-08-27T16:07:10.261Z,1.73
2022-08-27T16:09:37.401Z,1.40
2022-08-27T16:12:04.816Z,1.50
2022-08-27T16:14:32.209Z,1.50
2022-08-27T16:16:59.312Z,1.40
2022-08-27T16:19:26.533Z,1.77
2022-08-27T16:21:53.750Z,1.80
2022-08-27T16:24:21.609Z,1.50
2022-08-27T16:26:49.322Z,1.60
2022-08-27T16:29:16.543Z,1.60
2022-08-27T16:31:43.834Z,1.75
2022-08-27T16:34:16.561Z,1.40
2022-08-27T16:36:43.843Z,1.90
2022-08-27T16:39:11.100Z,1.67
2022-08-27T16:41:38.619Z,1.80
2022-08-27T16:44:06.864Z,1.80
2022-08-27T16:46:34.649Z,1.88
2022-08-27T16:49:20.497Z,1.60
2022-08-27T16:51:47.787Z,1.70
2022-08-27T16:54:16.602Z,1.90
2022-08-27T16:56:44.282Z,2.47
2022-08-27T16:59:13.474Z,1.83
2022-08-27T17:01:41.638Z,1.70
2022-08-27T17:04:18.205Z,1.60
2022-08-27T17:06:51.519Z,1.80
2022-08-27T17:09:19.412Z,2.00
2022-08-27T17:11:50.037Z,1.70
2022-08-27T17:14:17.180Z,1.80
2022-08-27T17:16:44.451Z,1.67
2022-08-27T17:19:16.658Z,1.70
2022-08-27T17:21:45.070Z,1.80
2022-08-27T17:24:12.779Z,1.65
2022-08-27T17:26:40.064Z,1.90
2022-08-27T17:29:07.317Z,1.50
2022-08-27T17:31:36.604Z,1.88
2022-08-27T17:34:04.742Z,1.63
2022-08-27T17:36:32.070Z,1.77
2022-08-27T17:39:00.612Z,1.75
2022-08-27T17:41:34.153Z,1.63
2022-08-27T17:44:03.497Z,1.88
2022-08-27T17:46:30.697Z,1.50
2022-08-27T17:48:57.800Z,1.40
2022-08-27T17:51:25.088Z,1.52
2022-08-27T17:53:57.187Z,1.30
2022-08-27T17:56:27.494Z,1.45
2022-08-27T17:58:54.770Z,1.80
2022-08-27T18:01:23.062Z,1.52
2022-08-27T18:03:56.146Z,1.50
2022-08-27T18:06:23.642Z,1.60
2022-08-27T18:08:50.726Z,1.30
2022-08-27T18:11:18.170Z,1.90
2022-08-27T18:13:47.789Z,1.70
2022-08-27T18:16:14.854Z,1.60
2022-08-27T18:18:42.046Z,1.50
2022-08-27T18:21:10.050Z,1.60
2022-08-27T18:23:37.474Z,1.50
2022-08-27T18:26:06.177Z,1.42
2022-08-27T18:28:34.063Z,1.67
2022-08-27T18:31:06.551Z,1.70
2022-08-27T18:33:33.841Z,1.60
2022-08-27T18:36:00.962Z,1.73
2022-08-27T18:38:28.182Z,2.00
2022-08-27T18:40:55.550Z,2.03
2022-08-27T18:43:25.388Z,1.70
2022-08-27T18:45:52.574Z,1.73
2022-08-27T18:48:22.062Z,1.77
2022-08-27T18:50:53.365Z,1.67
2022-08-27T18:53:21.381Z,1.60
2022-08-27T18:55:49.211Z,1.60
2022-08-27T18:58:16.323Z,1.63
2022-08-27T19:00:44.959Z,1.80
2022-08-27T19:03:12.495Z,1.70
2022-08-27T19:05:39.626Z,1.70
2022-08-27T19:08:10.411Z,1.63
2022-08-27T19:10:38.743Z,1.63
2022-08-27T19:13:05.842Z,1.85
2022-08-27T19:15:32.981Z,1.90
2022-08-27T19:18:03.087Z,1.70
2022-08-27T19:20:30.927Z,1.70
2022-08-27T19:22:59.292Z,1.50
2022-08-27T19:25:27.369Z,2.00
2022-08-27T19:27:54.713Z,1.77
2022-08-27T19:30:21.923Z,1.80
2022-08-27T19:32:49.309Z,1.60
2022-08-27T19:35:22.054Z,1.80
2022-08-27T19:37:52.910Z,2.00
2022-08-27T19:40:21.834Z,2.00
2022-08-27T19:42:49.245Z,2.00
2022-08-27T19:46:08.488Z,2.00
2022-08-27T19:48:35.739Z,1.80
2022-08-27T19:51:03.245Z,1.97
2022-08-27T19:53:30.370Z,2.10
2022-08-27T19:55:57.676Z,2.10
2022-08-27T19:58:25.077Z,1.90
2022-08-27T20:00:52.488Z,2.20
2022-08-27T20:03:19.657Z,2.17
2022-08-27T20:05:48.183Z,2.13
2022-08-27T20:08:15.314Z,1.95
2022-08-27T20:10:42.435Z,1.70
2022-08-27T20:13:09.657Z,2.00
2022-08-27T20:15:38.035Z,1.70
2022-08-27T20:18:05.766Z,1.90
2022-08-27T20:20:33.309Z,1.75
2022-08-27T20:23:02.714Z,1.90
2022-08-27T20:25:30.263Z,2.00
2022-08-27T20:27:57.388Z,1.87
2022-08-27T20:30:26.475Z,2.17
2022-08-27T20:32:53.549Z,2.50
2022-08-27T20:35:21.506Z,2.30
2022-08-27T20:37:48.603Z,2.30
2022-08-27T20:40:20.585Z,2.20
2022-08-27T20:42:47.730Z,2.10
2022-08-27T20:45:15.606Z,2.22
2022-08-27T20:47:44.021Z,2.30
2022-08-27T20:50:12.663Z,2.65
2022-08-27T20:52:40.130Z,2.03
2022-08-27T20:55:08.031Z,2.83
2022-08-27T20:57:35.101Z,2.05
2022-08-27T21:00:21.113Z,2.28
2022-08-27T21:02:48.329Z,2.35
2022-08-27T21:05:16.334Z,2.30
2022-08-27T21:07:44.459Z,2.60
2022-08-27T21:10:11.595Z,2.50
2022-08-27T21:12:38.693Z,2.47
2022-08-27T21:15:06.446Z,2.13
2022-08-27T21:17:33.554Z,2.63
2022-08-27T21:20:00.630Z,2.95
2022-08-27T21:22:27.988Z,2.70
2022-08-27T21:24:55.116Z,2.38
2022-08-27T21:27:22.500Z,2.78
2022-08-27T21:29:49.932Z,2.53
2022-08-27T21:32:17.756Z,2.80
2022-08-27T21:34:44.971Z,2.60
2022-08-27T21:37:13.532Z,2.83
2022-08-27T21:39:40.909Z,2.60
2022-08-27T21:42:08.678Z,2.43
2022-08-27T21:44:35.912Z,2.70
2022-08-27T21:47:03.674Z,2.53
2022-08-27T21:49:32.387Z,2.53
2022-08-27T21:52:00.211Z,2.70
2022-08-27T21:54:27.700Z,2.70
2022-08-27T21:56:55.266Z,2.28
2022-08-27T21:59:22.390Z,2.70
2022-08-27T22:01:55.807Z,2.63
2022-08-27T22:04:30.669Z,2.78
2022-08-27T22:06:58.865Z,2.30
2022-08-27T22:09:26.142Z,2.60
2022-08-27T22:11:53.249Z,2.45
2022-08-27T22:14:20.373Z,2.70
2022-08-27T22:16:47.458Z,2.78
2022-08-27T22:19:14.555Z,2.50
2022-08-27T22:21:41.666Z,3.17
2022-08-27T22:24:08.976Z,2.83
2022-08-27T22:26:36.120Z,2.58
2022-08-27T22:29:04.785Z,2.70
2022-08-27T22:31:32.613Z,2.70
2022-08-27T22:34:00.659Z,2.50
2022-08-27T22:36:27.961Z,2.83
2022-08-27T22:38:59.784Z,2.75
2022-08-27T22:41:30.570Z,3.20
2022-08-27T22:43:59.780Z,2.53
2022-08-27T22:46:26.908Z,2.78
2022-08-27T22:48:54.048Z,2.70
2022-08-27T22:51:21.369Z,2.80
2022-08-27T22:53:48.457Z,3.00
2022-08-27T22:56:15.546Z,2.77
2022-08-27T22:58:46.004Z,2.92
2022-08-27T23:01:13.649Z,2.60
2022-08-27T23:03:40.926Z,3.58
2022-08-27T23:06:08.136Z,2.70
2022-08-27T23:08:35.249Z,2.77
2022-08-27T23:11:03.264Z,3.40
2022-08-27T23:13:33.898Z,3.08
2022-08-27T23:16:01.652Z,3.03
2022-08-27T23:18:29.302Z,3.10
2022-08-27T23:20:56.373Z,3.00
2022-08-27T23:23:26.763Z,3.08
2022-08-27T23:26:15.718Z,3.15
2022-08-27T23:28:43.442Z,2.88
2022-08-27T23:31:10.938Z,2.92
2022-08-27T23:33:38.416Z,2.80
2022-08-27T23:36:05.964Z,2.80
2022-08-27T23:38:33.750Z,3.03
2022-08-27T23:41:00.978Z,3.20
2022-08-27T23:43:28.429Z,2.88
2022-08-27T23:45:55.499Z,2.77
2022-08-27T23:48:22.561Z,2.40
2022-08-27T23:50:49.854Z,2.63
2022-08-27T23:53:16.901Z,2.72
2022-08-27T23:55:43.975Z,2.55
2022-08-27T23:58:11.794Z,2.87
